sensor_id;sensor_type;location;lat;lon;timestamp;temperature;humidity
3701;DHT22;1866;48.374;10.766;2023-02-11T00:01:51;-4.50;1.00
3701;DHT22;1866;48.374;10.766;2023-02-11T00:04:19;-4.50;1.00
3701;DHT22;1866;48.374;10.766;2023-02-11T00:06:46;-4.50;1.00
3701;DHT22;1866;48.374;10.766;2023-02-11T00:09:13;-4.50;1.00
3701;DHT22;1866;48.374;10.766;2023-02-11T00:11:40;-4.70;1.00
3701;DHT22;1866;48.374;10.766;2023-02-11T00:14:07;-4.70;1.00
3701;DHT22;1866;48.374;10.766;2023-02-11T00:16:35;-4.80;1.00
3701;DHT22;1866;48.374;10.766;2023-02-11T00:19:02;-4.80;1.00
3701;DHT22;1866;48.374;10.766;2023-02-11T00:21:32;-4.70;1.00
3701;DHT22;1866;48.374;10.766;2023-02-11T00:23:59;-4.80;1.00
3701;DHT22;1866;48.374;10.766;2023-02-11T00:26:29;-4.80;1.00
3701;DHT22;1866;48.374;10.766;2023-02-11T00:28:56;-4.80;1.00
3701;DHT22;1866;48.374;10.766;2023-02-11T00:31:24;-4.70;1.00
3701;DHT22;1866;48.374;10.766;2023-02-11T00:33:52;-4.60;1.00
3701;DHT22;1866;48.374;10.766;2023-02-11T00:36:21;-4.50;1.00
3701;DHT22;1866;48.374;10.766;2023-02-11T00:38:52;-4.40;1.00
3701;DHT22;1866;48.374;10.766;2023-02-11T00:41:20;-4.50;1.00
3701;DHT22;1866;48.374;10.766;2023-02-11T00:43:47;-4.60;1.00
3701;DHT22;1866;48.374;10.766;2023-02-11T00:46:14;-4.50;1.00
3701;DHT22;1866;48.374;10.766;2023-02-11T00:48:42;-4.60;1.00
3701;DHT22;1866;48.374;10.766;2023-02-11T00:51:09;-4.60;1.00
3701;DHT22;1866;48.374;10.766;2023-02-11T00:53:36;-4.70;1.00
3701;DHT22;1866;48.374;10.766;2023-02-11T00:56:05;-4.60;1.00
3701;DHT22;1866;48.374;10.766;2023-02-11T00:58:32;-4.50;1.00
3701;DHT22;1866;48.374;10.766;2023-02-11T01:00:59;-4.60;1.00
3701;DHT22;1866;48.374;10.766;2023-02-11T01:03:26;-4.70;1.00
3701;DHT22;1866;48.374;10.766;2023-02-11T01:05:53;-4.70;1.00
3701;DHT22;1866;48.374;10.766;2023-02-11T01:08:20;-4.70;1.00
3701;DHT22;1866;48.374;10.766;2023-02-11T01:10:53;-4.70;1.00
3701;DHT22;1866;48.374;10.766;2023-02-11T01:13:21;-4.70;1.00
3701;DHT22;1866;48.374;10.766;2023-02-11T01:15:48;-4.90;1.00
3701;DHT22;1866;48.374;10.766;2023-02-11T01:18:15;-4.90;1.00
3701;DHT22;1866;48.374;10.766;2023-02-11T01:20:42;-4.90;1.00
3701;DHT22;1866;48.374;10.766;2023-02-11T01:23:09;-4.90;1.00
3701;DHT22;1866;48.374;10.766;2023-02-11T01:25:36;-4.80;1.00
3701;DHT22;1866;48.374;10.766;2023-02-11T01:28:03;-4.70;1.00
3701;DHT22;1866;48.374;10.766;2023-02-11T01:30:32;-4.60;1.00
3701;DHT22;1866;48.374;10.766;2023-02-11T01:32:58;-4.70;1.00
3701;DHT22;1866;48.374;10.766;2023-02-11T01:35:25;-4.90;1.00
3701;DHT22;1866;48.374;10.766;2023-02-11T01:37:52;-4.70;1.00
3701;DHT22;1866;48.374;10.766;2023-02-11T01:40:19;-4.70;1.00
3701;DHT22;1866;48.374;10.766;2023-02-11T01:42:46;-4.90;1.00
3701;DHT22;1866;48.374;10.766;2023-02-11T01:48:27;-4.70;1.00
3701;DHT22;1866;48.374;10.766;2023-02-11T01:50:59;-4.90;1.00
3701;DHT22;1866;48.374;10.766;2023-02-11T01:53:28;-5.00;1.00
3701;DHT22;1866;48.374;10.766;2023-02-11T01:56:14;-5.10;1.00
3701;DHT22;1866;48.374;10.766;2023-02-11T01:59:02;-5.10;1.00
3701;DHT22;1866;48.374;10.766;2023-02-11T02:01:31;-5.20;1.00
3701;DHT22;1866;48.374;10.766;2023-02-11T02:04:02;-5.20;1.00
3701;DHT22;1866;48.374;10.766;2023-02-11T02:06:33;-5.40;1.00
3701;DHT22;1866;48.374;10.766;2023-02-11T02:09:04;-5.50;1.00
3701;DHT22;1866;48.374;10.766;2023-02-11T02:11:33;-5.70;1.00
3701;DHT22;1866;48.374;10.766;2023-02-11T02:14:00;-5.50;1.00
3701;DHT22;1866;48.374;10.766;2023-02-11T02:16:31;-5.30;1.00
3701;DHT22;1866;48.374;10.766;2023-02-11T02:19:15;-5.10;1.00
3701;DHT22;1866;48.374;10.766;2023-02-11T02:22:18;-5.20;1.00
3701;DHT22;1866;48.374;10.766;2023-02-11T02:25:01;-5.50;1.00
3701;DHT22;1866;48.374;10.766;2023-02-11T02:27:45;-5.50;1.00
3701;DHT22;1866;48.374;10.766;2023-02-11T02:30:34;-5.60;1.00
3701;DHT22;1866;48.374;10.766;2023-02-11T02:33:16;-5.60;1.00
3701;DHT22;1866;48.374;10.766;2023-02-11T02:35:49;-5.50;1.00
3701;DHT22;1866;48.374;10.766;2023-02-11T02:38:23;-5.50;1.00
3701;DHT22;1866;48.374;10.766;2023-02-11T02:40:56;-5.50;1.00
3701;DHT22;1866;48.374;10.766;2023-02-11T02:43:26;-5.50;1.00
3701;DHT22;1866;48.374;10.766;2023-02-11T02:45:53;-5.60;1.00
3701;DHT22;1866;48.374;10.766;2023-02-11T02:48:29;-5.50;1.00
3701;DHT22;1866;48.374;10.766;2023-02-11T02:51:11;-5.20;1.00
3701;DHT22;1866;48.374;10.766;2023-02-11T02:53:45;-5.20;1.00
3701;DHT22;1866;48.374;10.766;2023-02-11T02:56:24;-5.00;1.00
3701;DHT22;1866;48.374;10.766;2023-02-11T02:59:08;-5.00;1.00
3701;DHT22;1866;48.374;10.766;2023-02-11T03:01:42;-5.10;1.00
3701;DHT22;1866;48.374;10.766;2023-02-11T03:04:18;-4.90;1.00
3701;DHT22;1866;48.374;10.766;2023-02-11T03:06:51;-4.90;1.00
3701;DHT22;1866;48.374;10.766;2023-02-11T03:09:24;-4.90;1.00
3701;DHT22;1866;48.374;10.766;2023-02-11T03:11:53;-5.00;1.00
3701;DHT22;1866;48.374;10.766;2023-02-11T03:14:21;-5.10;1.00
3701;DHT22;1866;48.374;10.766;2023-02-11T03:16:49;-5.10;1.00
3701;DHT22;1866;48.374;10.766;2023-02-11T03:19:21;-5.10;1.00
3701;DHT22;1866;48.374;10.766;2023-02-11T03:21:50;-4.90;1.00
3701;DHT22;1866;48.374;10.766;2023-02-11T03:24:23;-5.00;1.00
3701;DHT22;1866;48.374;10.766;2023-02-11T03:26:53;-5.00;1.00
3701;DHT22;1866;48.374;10.766;2023-02-11T03:29:30;-4.90;1.00
3701;DHT22;1866;48.374;10.766;2023-02-11T03:32:02;-4.90;1.00
3701;DHT22;1866;48.374;10.766;2023-02-11T03:34:37;-5.10;1.00
3701;DHT22;1866;48.374;10.766;2023-02-11T03:37:10;-5.40;1.00
3701;DHT22;1866;48.374;10.766;2023-02-11T03:39:40;-5.30;1.00
3701;DHT22;1866;48.374;10.766;2023-02-11T03:42:10;-5.20;1.00
3701;DHT22;1866;48.374;10.766;2023-02-11T03:44:40;-5.10;1.00
3701;DHT22;1866;48.374;10.766;2023-02-11T03:47:11;-5.20;1.00
3701;DHT22;1866;48.374;10.766;2023-02-11T03:49:41;-5.50;1.00
3701;DHT22;1866;48.374;10.766;2023-02-11T03:52:10;-5.40;1.00
3701;DHT22;1866;48.374;10.766;2023-02-11T03:54:40;-5.30;1.00
3701;DHT22;1866;48.374;10.766;2023-02-11T03:57:07;-5.00;1.00
3701;DHT22;1866;48.374;10.766;2023-02-11T03:59:52;-5.00;1.00
3701;DHT22;1866;48.374;10.766;2023-02-11T04:02:19;-5.10;1.00
3701;DHT22;1866;48.374;10.766;2023-02-11T04:04:48;-5.10;1.00
3701;DHT22;1866;48.374;10.766;2023-02-11T04:07:16;-5.10;1.00
3701;DHT22;1866;48.374;10.766;2023-02-11T04:09:42;-5.00;1.00
3701;DHT22;1866;48.374;10.766;2023-02-11T04:12:09;-4.90;1.00
3701;DHT22;1866;48.374;10.766;2023-02-11T04:14:36;-4.80;1.00
3701;DHT22;1866;48.374;10.766;2023-02-11T04:17:04;-4.90;1.00
3701;DHT22;1866;48.374;10.766;2023-02-11T04:19:30;-5.00;1.00
3701;DHT22;1866;48.374;10.766;2023-02-11T04:21:59;-5.00;1.00
3701;DHT22;1866;48.374;10.766;2023-02-11T04:24:26;-4.80;1.00
3701;DHT22;1866;48.374;10.766;2023-02-11T04:26:52;-4.80;1.00
3701;DHT22;1866;48.374;10.766;2023-02-11T04:29:19;-4.80;1.00
3701;DHT22;1866;48.374;10.766;2023-02-11T04:31:46;-4.80;1.00
3701;DHT22;1866;48.374;10.766;2023-02-11T04:34:13;-4.80;1.00
3701;DHT22;1866;48.374;10.766;2023-02-11T04:36:40;-4.70;1.00
3701;DHT22;1866;48.374;10.766;2023-02-11T04:39:09;-4.70;1.00
3701;DHT22;1866;48.374;10.766;2023-02-11T04:41:36;-4.70;1.00
3701;DHT22;1866;48.374;10.766;2023-02-11T04:44:03;-4.60;1.00
3701;DHT22;1866;48.374;10.766;2023-02-11T04:46:30;-4.50;1.00
3701;DHT22;1866;48.374;10.766;2023-02-11T04:48:56;-4.50;1.00
3701;DHT22;1866;48.374;10.766;2023-02-11T04:51:23;-4.50;1.00
3701;DHT22;1866;48.374;10.766;2023-02-11T04:53:50;-4.50;1.00
3701;DHT22;1866;48.374;10.766;2023-02-11T04:56:18;-4.40;1.00
3701;DHT22;1866;48.374;10.766;2023-02-11T04:58:45;-4.20;1.00
3701;DHT22;1866;48.374;10.766;2023-02-11T05:01:14;-4.00;1.00
3701;DHT22;1866;48.374;10.766;2023-02-11T05:03:41;-3.90;1.00
3701;DHT22;1866;48.374;10.766;2023-02-11T05:06:09;-3.90;1.00
3701;DHT22;1866;48.374;10.766;2023-02-11T05:08:36;-3.90;1.00
3701;DHT22;1866;48.374;10.766;2023-02-11T05:11:03;-3.80;1.00
3701;DHT22;1866;48.374;10.766;2023-02-11T05:13:31;-3.80;1.00
3701;DHT22;1866;48.374;10.766;2023-02-11T05:15:58;-3.70;1.00
3701;DHT22;1866;48.374;10.766;2023-02-11T05:18:25;-3.80;1.00
3701;DHT22;1866;48.374;10.766;2023-02-11T05:20:52;-3.80;1.00
3701;DHT22;1866;48.374;10.766;2023-02-11T05:23:19;-3.70;1.00
3701;DHT22;1866;48.374;10.766;2023-02-11T05:25:45;-3.70;1.00
3701;DHT22;1866;48.374;10.766;2023-02-11T05:28:12;-3.60;1.00
3701;DHT22;1866;48.374;10.766;2023-02-11T05:30:40;-3.60;1.00
3701;DHT22;1866;48.374;10.766;2023-02-11T05:33:07;-3.60;1.00
3701;DHT22;1866;48.374;10.766;2023-02-11T05:35:34;-3.60;1.00
3701;DHT22;1866;48.374;10.766;2023-02-11T05:38:01;-3.50;1.00
3701;DHT22;1866;48.374;10.766;2023-02-11T05:40:27;-3.50;1.00
3701;DHT22;1866;48.374;10.766;2023-02-11T05:42:54;-3.30;1.00
3701;DHT22;1866;48.374;10.766;2023-02-11T05:45:21;-3.20;1.00
3701;DHT22;1866;48.374;10.766;2023-02-11T05:47:49;-3.10;1.00
3701;DHT22;1866;48.374;10.766;2023-02-11T05:50:16;-3.20;1.00
3701;DHT22;1866;48.374;10.766;2023-02-11T05:52:43;-3.20;1.00
3701;DHT22;1866;48.374;10.766;2023-02-11T05:55:09;-3.10;1.00
3701;DHT22;1866;48.374;10.766;2023-02-11T05:57:36;-3.00;1.00
3701;DHT22;1866;48.374;10.766;2023-02-11T06:00:05;-3.00;1.00
3701;DHT22;1866;48.374;10.766;2023-02-11T06:02:32;-3.00;1.00
3701;DHT22;1866;48.374;10.766;2023-02-11T06:05:01;-3.10;1.00
3701;DHT22;1866;48.374;10.766;2023-02-11T06:07:27;-3.00;1.00
3701;DHT22;1866;48.374;10.766;2023-02-11T06:09:54;-2.90;1.00
3701;DHT22;1866;48.374;10.766;2023-02-11T06:12:22;-3.00;1.00
3701;DHT22;1866;48.374;10.766;2023-02-11T06:14:48;-2.90;1.00
3701;DHT22;1866;48.374;10.766;2023-02-11T06:17:15;-2.90;1.00
3701;DHT22;1866;48.374;10.766;2023-02-11T06:19:42;-2.90;1.00
3701;DHT22;1866;48.374;10.766;2023-02-11T06:22:10;-3.00;1.00
3701;DHT22;1866;48.374;10.766;2023-02-11T06:24:38;-3.00;1.00
3701;DHT22;1866;48.374;10.766;2023-02-11T06:27:05;-3.00;1.00
3701;DHT22;1866;48.374;10.766;2023-02-11T06:29:32;-3.00;1.00
3701;DHT22;1866;48.374;10.766;2023-02-11T06:31:58;-2.90;1.00
3701;DHT22;1866;48.374;10.766;2023-02-11T06:34:26;-2.90;1.00
3701;DHT22;1866;48.374;10.766;2023-02-11T06:36:53;-2.90;1.00
3701;DHT22;1866;48.374;10.766;2023-02-11T06:39:21;-2.90;1.00
3701;DHT22;1866;48.374;10.766;2023-02-11T06:41:48;-2.80;1.00
3701;DHT22;1866;48.374;10.766;2023-02-11T06:44:14;-2.80;1.00
3701;DHT22;1866;48.374;10.766;2023-02-11T06:46:41;-2.80;1.00
3701;DHT22;1866;48.374;10.766;2023-02-11T06:49:08;-2.70;1.00
3701;DHT22;1866;48.374;10.766;2023-02-11T06:51:35;-2.70;1.00
3701;DHT22;1866;48.374;10.766;2023-02-11T06:54:03;-2.60;1.00
3701;DHT22;1866;48.374;10.766;2023-02-11T06:56:32;-2.60;1.00
3701;DHT22;1866;48.374;10.766;2023-02-11T06:58:59;-2.50;1.00
3701;DHT22;1866;48.374;10.766;2023-02-11T07:01:27;-2.50;1.00
3701;DHT22;1866;48.374;10.766;2023-02-11T07:03:53;-2.50;1.00
3701;DHT22;1866;48.374;10.766;2023-02-11T07:06:22;-2.40;1.00
3701;DHT22;1866;48.374;10.766;2023-02-11T07:08:49;-2.40;1.00
3701;DHT22;1866;48.374;10.766;2023-02-11T07:11:18;-2.40;1.00
3701;DHT22;1866;48.374;10.766;2023-02-11T07:13:46;-2.30;1.00
3701;DHT22;1866;48.374;10.766;2023-02-11T07:16:15;-2.30;1.00
3701;DHT22;1866;48.374;10.766;2023-02-11T07:18:42;-2.30;1.00
3701;DHT22;1866;48.374;10.766;2023-02-11T07:21:11;-2.20;1.00
3701;DHT22;1866;48.374;10.766;2023-02-11T07:23:38;-2.10;1.00
3701;DHT22;1866;48.374;10.766;2023-02-11T07:26:07;-2.10;1.00
3701;DHT22;1866;48.374;10.766;2023-02-11T07:28:36;-2.00;1.00
3701;DHT22;1866;48.374;10.766;2023-02-11T07:31:07;-1.90;1.00
3701;DHT22;1866;48.374;10.766;2023-02-11T07:33:34;-1.80;1.00
3701;DHT22;1866;48.374;10.766;2023-02-11T07:36:03;-1.70;1.00
3701;DHT22;1866;48.374;10.766;2023-02-11T07:38:30;-1.60;1.00
3701;DHT22;1866;48.374;10.766;2023-02-11T07:40:59;-1.50;1.00
3701;DHT22;1866;48.374;10.766;2023-02-11T07:43:26;-1.40;1.00
3701;DHT22;1866;48.374;10.766;2023-02-11T07:45:52;-1.30;1.00
3701;DHT22;1866;48.374;10.766;2023-02-11T07:48:21;-1.10;1.00
3701;DHT22;1866;48.374;10.766;2023-02-11T07:50:48;-1.10;1.00
3701;DHT22;1866;48.374;10.766;2023-02-11T07:53:14;-0.90;1.00
3701;DHT22;1866;48.374;10.766;2023-02-11T07:55:41;-0.80;1.00
3701;DHT22;1866;48.374;10.766;2023-02-11T07:58:08;-0.80;1.00
3701;DHT22;1866;48.374;10.766;2023-02-11T08:00:35;-0.80;1.00
3701;DHT22;1866;48.374;10.766;2023-02-11T08:03:02;-0.80;1.00
3701;DHT22;1866;48.374;10.766;2023-02-11T08:05:31;-0.80;1.00
3701;DHT22;1866;48.374;10.766;2023-02-11T08:07:57;-0.70;1.00
3701;DHT22;1866;48.374;10.766;2023-02-11T08:10:24;-0.60;1.00
3701;DHT22;1866;48.374;10.766;2023-02-11T08:12:51;-0.60;1.00
3701;DHT22;1866;48.374;10.766;2023-02-11T08:15:19;-0.50;1.00
3701;DHT22;1866;48.374;10.766;2023-02-11T08:17:46;-0.40;1.00
3701;DHT22;1866;48.374;10.766;2023-02-11T08:20:13;-0.30;1.00
3701;DHT22;1866;48.374;10.766;2023-02-11T08:22:41;-0.10;1.00
3701;DHT22;1866;48.374;10.766;2023-02-11T08:25:08;0.00;1.00
3701;DHT22;1866;48.374;10.766;2023-02-11T08:27:35;0.10;1.00
3701;DHT22;1866;48.374;10.766;2023-02-11T08:30:02;0.20;1.00
3701;DHT22;1866;48.374;10.766;2023-02-11T08:32:29;0.30;1.00
3701;DHT22;1866;48.374;10.766;2023-02-11T08:34:56;0.60;1.00
3701;DHT22;1866;48.374;10.766;2023-02-11T08:37:23;0.60;1.00
3701;DHT22;1866;48.374;10.766;2023-02-11T08:39:51;0.60;1.00
3701;DHT22;1866;48.374;10.766;2023-02-11T08:42:18;0.80;1.00
3701;DHT22;1866;48.374;10.766;2023-02-11T08:44:45;0.90;1.00
3701;DHT22;1866;48.374;10.766;2023-02-11T08:47:12;0.90;1.00
3701;DHT22;1866;48.374;10.766;2023-02-11T08:49:38;0.90;1.00
3701;DHT22;1866;48.374;10.766;2023-02-11T08:52:06;1.00;1.00
3701;DHT22;1866;48.374;10.766;2023-02-11T08:54:33;0.80;1.00
3701;DHT22;1866;48.374;10.766;2023-02-11T08:57:02;0.80;1.00
3701;DHT22;1866;48.374;10.766;2023-02-11T08:59:29;0.70;1.00
3701;DHT22;1866;48.374;10.766;2023-02-11T09:01:57;0.70;1.00
3701;DHT22;1866;48.374;10.766;2023-02-11T09:04:23;0.80;1.00
3701;DHT22;1866;48.374;10.766;2023-02-11T09:06:50;0.70;1.00
3701;DHT22;1866;48.374;10.766;2023-02-11T09:09:17;0.80;1.00
3701;DHT22;1866;48.374;10.766;2023-02-11T09:11:45;0.80;1.00
3701;DHT22;1866;48.374;10.766;2023-02-11T09:14:19;1.00;1.00
3701;DHT22;1866;48.374;10.766;2023-02-11T09:16:46;1.20;1.00
3701;DHT22;1866;48.374;10.766;2023-02-11T09:19:13;1.20;1.00
3701;DHT22;1866;48.374;10.766;2023-02-11T09:21:40;1.30;1.00
3701;DHT22;1866;48.374;10.766;2023-02-11T09:24:07;1.30;1.00
3701;DHT22;1866;48.374;10.766;2023-02-11T09:26:35;1.40;1.00
3701;DHT22;1866;48.374;10.766;2023-02-11T09:29:04;1.60;1.00
3701;DHT22;1866;48.374;10.766;2023-02-11T09:31:32;1.90;1.00
3701;DHT22;1866;48.374;10.766;2023-02-11T09:34:01;1.90;1.00
3701;DHT22;1866;48.374;10.766;2023-02-11T09:36:30;1.90;1.00
3701;DHT22;1866;48.374;10.766;2023-02-11T09:38:59;2.00;1.00
3701;DHT22;1866;48.374;10.766;2023-02-11T09:44:43;2.20;1.00
3701;DHT22;1866;48.374;10.766;2023-02-11T09:47:21;2.10;1.00
3701;DHT22;1866;48.374;10.766;2023-02-11T09:49:51;2.20;1.00
3701;DHT22;1866;48.374;10.766;2023-02-11T09:52:29;2.30;1.00
3701;DHT22;1866;48.374;10.766;2023-02-11T09:54:58;2.40;1.00
3701;DHT22;1866;48.374;10.766;2023-02-11T09:57:30;2.40;1.00
3701;DHT22;1866;48.374;10.766;2023-02-11T09:59:57;2.70;1.00
3701;DHT22;1866;48.374;10.766;2023-02-11T10:02:31;2.70;1.00
3701;DHT22;1866;48.374;10.766;2023-02-11T10:05:18;2.80;1.00
3701;DHT22;1866;48.374;10.766;2023-02-11T10:07:53;2.60;1.00
3701;DHT22;1866;48.374;10.766;2023-02-11T10:10:33;2.60;1.00
3701;DHT22;1866;48.374;10.766;2023-02-11T10:13:39;2.60;1.00
3701;DHT22;1866;48.374;10.766;2023-02-11T10:16:17;2.60;1.00
3701;DHT22;1866;48.374;10.766;2023-02-11T10:19:07;2.80;1.00
3701;DHT22;1866;48.374;10.766;2023-02-11T10:21:44;2.80;1.00
3701;DHT22;1866;48.374;10.766;2023-02-11T10:24:18;2.70;1.00
3701;DHT22;1866;48.374;10.766;2023-02-11T10:26:45;2.90;1.00
3701;DHT22;1866;48.374;10.766;2023-02-11T10:29:30;2.90;1.00
3701;DHT22;1866;48.374;10.766;2023-02-11T10:32:00;3.10;1.00
3701;DHT22;1866;48.374;10.766;2023-02-11T10:34:30;3.20;1.00
3701;DHT22;1866;48.374;10.766;2023-02-11T10:36:57;3.10;1.00
3701;DHT22;1866;48.374;10.766;2023-02-11T10:39:25;3.20;1.00
3701;DHT22;1866;48.374;10.766;2023-02-11T10:41:56;3.20;1.00
3701;DHT22;1866;48.374;10.766;2023-02-11T10:44:25;3.20;1.00
3701;DHT22;1866;48.374;10.766;2023-02-11T10:46:53;3.20;1.00
3701;DHT22;1866;48.374;10.766;2023-02-11T10:49:38;3.00;1.00
3701;DHT22;1866;48.374;10.766;2023-02-11T10:52:18;3.20;1.00
3701;DHT22;1866;48.374;10.766;2023-02-11T10:54:56;3.40;1.00
3701;DHT22;1866;48.374;10.766;2023-02-11T10:57:27;3.90;1.00
3701;DHT22;1866;48.374;10.766;2023-02-11T10:59:57;4.10;1.00
3701;DHT22;1866;48.374;10.766;2023-02-11T11:02:28;4.20;1.00
3701;DHT22;1866;48.374;10.766;2023-02-11T11:05:00;4.00;1.00
3701;DHT22;1866;48.374;10.766;2023-02-11T11:07:30;4.10;1.00
3701;DHT22;1866;48.374;10.766;2023-02-11T11:10:00;4.40;1.00
3701;DHT22;1866;48.374;10.766;2023-02-11T11:12:31;4.50;1.00
3701;DHT22;1866;48.374;10.766;2023-02-11T11:15:02;4.50;1.00
3701;DHT22;1866;48.374;10.766;2023-02-11T11:17:39;4.40;1.00
3701;DHT22;1866;48.374;10.766;2023-02-11T11:20:20;4.50;1.00
3701;DHT22;1866;48.374;10.766;2023-02-11T11:22:49;4.60;1.00
3701;DHT22;1866;48.374;10.766;2023-02-11T11:25:22;4.90;1.00
3701;DHT22;1866;48.374;10.766;2023-02-11T11:27:49;4.60;1.00
3701;DHT22;1866;48.374;10.766;2023-02-11T11:30:16;4.40;1.00
3701;DHT22;1866;48.374;10.766;2023-02-11T11:32:44;4.30;1.00
3701;DHT22;1866;48.374;10.766;2023-02-11T11:35:24;4.20;1.00
3701;DHT22;1866;48.374;10.766;2023-02-11T11:37:53;4.10;1.00
3701;DHT22;1866;48.374;10.766;2023-02-11T11:40:23;4.10;1.00
3701;DHT22;1866;48.374;10.766;2023-02-11T11:43:03;4.30;1.00
3701;DHT22;1866;48.374;10.766;2023-02-11T11:45:31;4.60;1.00
3701;DHT22;1866;48.374;10.766;2023-02-11T11:47:59;5.00;1.00
3701;DHT22;1866;48.374;10.766;2023-02-11T11:50:34;5.20;1.00
3701;DHT22;1866;48.374;10.766;2023-02-11T11:53:04;5.10;1.00
3701;DHT22;1866;48.374;10.766;2023-02-11T11:55:37;4.90;1.00
3701;DHT22;1866;48.374;10.766;2023-02-11T11:58:04;4.80;1.00
3701;DHT22;1866;48.374;10.766;2023-02-11T12:00:42;4.80;1.00
3701;DHT22;1866;48.374;10.766;2023-02-11T12:03:31;4.80;1.00
3701;DHT22;1866;48.374;10.766;2023-02-11T12:06:23;4.70;1.00
3701;DHT22;1866;48.374;10.766;2023-02-11T12:09:03;4.80;1.00
3701;DHT22;1866;48.374;10.766;2023-02-11T12:11:43;4.80;1.00
3701;DHT22;1866;48.374;10.766;2023-02-11T12:14:22;4.90;1.00
3701;DHT22;1866;48.374;10.766;2023-02-11T12:16:56;4.80;1.00
3701;DHT22;1866;48.374;10.766;2023-02-11T12:19:47;4.90;1.00
3701;DHT22;1866;48.374;10.766;2023-02-11T12:22:28;5.00;1.00
3701;DHT22;1866;48.374;10.766;2023-02-11T12:25:21;5.20;1.00
3701;DHT22;1866;48.374;10.766;2023-02-11T12:27:58;5.20;1.00
3701;DHT22;1866;48.374;10.766;2023-02-11T12:30:44;5.30;1.00
3701;DHT22;1866;48.374;10.766;2023-02-11T12:33:26;5.40;1.00
3701;DHT22;1866;48.374;10.766;2023-02-11T12:36:00;5.50;1.00
3701;DHT22;1866;48.374;10.766;2023-02-11T12:38:47;5.40;1.00
3701;DHT22;1866;48.374;10.766;2023-02-11T12:41:30;5.60;1.00
3701;DHT22;1866;48.374;10.766;2023-02-11T12:44:24;5.70;1.00
3701;DHT22;1866;48.374;10.766;2023-02-11T12:46:56;6.10;1.00
3701;DHT22;1866;48.374;10.766;2023-02-11T12:49:48;6.00;1.00
3701;DHT22;1866;48.374;10.766;2023-02-11T12:52:28;6.00;1.00
3701;DHT22;1866;48.374;10.766;2023-02-11T12:55:00;6.10;1.00
3701;DHT22;1866;48.374;10.766;2023-02-11T12:57:30;6.20;1.00
3701;DHT22;1866;48.374;10.766;2023-02-11T13:00:02;6.40;1.00
3701;DHT22;1866;48.374;10.766;2023-02-11T13:02:35;6.50;1.00
3701;DHT22;1866;48.374;10.766;2023-02-11T13:05:15;6.60;1.00
3701;DHT22;1866;48.374;10.766;2023-02-11T13:07:45;6.60;1.00
3701;DHT22;1866;48.374;10.766;2023-02-11T13:10:23;6.80;1.00
3701;DHT22;1866;48.374;10.766;2023-02-11T13:12:52;6.70;1.00
3701;DHT22;1866;48.374;10.766;2023-02-11T13:15:38;6.40;1.00
3701;DHT22;1866;48.374;10.766;2023-02-11T13:18:15;6.30;1.00
3701;DHT22;1866;48.374;10.766;2023-02-11T13:20:46;6.30;1.00
3701;DHT22;1866;48.374;10.766;2023-02-11T13:23:22;6.30;1.00
3701;DHT22;1866;48.374;10.766;2023-02-11T13:25:56;6.30;1.00
3701;DHT22;1866;48.374;10.766;2023-02-11T13:28:34;6.40;1.00
3701;DHT22;1866;48.374;10.766;2023-02-11T13:31:02;6.30;1.00
3701;DHT22;1866;48.374;10.766;2023-02-11T13:33:34;6.40;1.00
3701;DHT22;1866;48.374;10.766;2023-02-11T13:36:16;6.40;1.00
3701;DHT22;1866;48.374;10.766;2023-02-11T13:38:59;6.70;1.00
3701;DHT22;1866;48.374;10.766;2023-02-11T13:41:34;6.70;1.00
3701;DHT22;1866;48.374;10.766;2023-02-11T13:46:53;6.60;1.00
3701;DHT22;1866;48.374;10.766;2023-02-11T13:49:24;6.60;1.00
3701;DHT22;1866;48.374;10.766;2023-02-11T13:51:52;6.60;1.00
3701;DHT22;1866;48.374;10.766;2023-02-11T13:54:29;6.70;1.00
3701;DHT22;1866;48.374;10.766;2023-02-11T13:57:35;6.70;1.00
3701;DHT22;1866;48.374;10.766;2023-02-11T14:03:22;6.60;1.00
3701;DHT22;1866;48.374;10.766;2023-02-11T14:06:12;6.70;1.00
3701;DHT22;1866;48.374;10.766;2023-02-11T14:09:08;6.70;1.00
3701;DHT22;1866;48.374;10.766;2023-02-11T14:11:47;6.70;1.00
3701;DHT22;1866;48.374;10.766;2023-02-11T14:14:24;6.70;1.00
3701;DHT22;1866;48.374;10.766;2023-02-11T14:17:30;6.70;1.00
3701;DHT22;1866;48.374;10.766;2023-02-11T14:20:00;6.80;1.00
3701;DHT22;1866;48.374;10.766;2023-02-11T14:22:30;6.80;1.00
3701;DHT22;1866;48.374;10.766;2023-02-11T14:25:17;6.70;1.00
3701;DHT22;1866;48.374;10.766;2023-02-11T14:27:47;6.70;1.00
3701;DHT22;1866;48.374;10.766;2023-02-11T14:30:43;6.80;1.00
3701;DHT22;1866;48.374;10.766;2023-02-11T14:36:28;6.70;1.00
3701;DHT22;1866;48.374;10.766;2023-02-11T14:39:10;6.70;1.00
3701;DHT22;1866;48.374;10.766;2023-02-11T14:41:42;6.60;1.00
3701;DHT22;1866;48.374;10.766;2023-02-11T14:44:13;6.60;1.00
3701;DHT22;1866;48.374;10.766;2023-02-11T14:46:45;6.70;1.00
3701;DHT22;1866;48.374;10.766;2023-02-11T14:49:20;6.50;1.00
3701;DHT22;1866;48.374;10.766;2023-02-11T14:51:49;6.50;1.00
3701;DHT22;1866;48.374;10.766;2023-02-11T14:54:18;6.40;1.00
3701;DHT22;1866;48.374;10.766;2023-02-11T14:57:04;6.30;1.00
3701;DHT22;1866;48.374;10.766;2023-02-11T14:59:32;6.10;1.00
3701;DHT22;1866;48.374;10.766;2023-02-11T15:02:00;6.00;1.00
3701;DHT22;1866;48.374;10.766;2023-02-11T15:04:29;5.90;1.00
3701;DHT22;1866;48.374;10.766;2023-02-11T15:07:01;5.80;1.00
3701;DHT22;1866;48.374;10.766;2023-02-11T15:09:32;5.70;1.00
3701;DHT22;1866;48.374;10.766;2023-02-11T15:11:59;5.70;1.00
3701;DHT22;1866;48.374;10.766;2023-02-11T15:14:28;5.60;1.00
3701;DHT22;1866;48.374;10.766;2023-02-11T15:16:58;5.60;1.00
3701;DHT22;1866;48.374;10.766;2023-02-11T15:19:30;5.70;1.00
3701;DHT22;1866;48.374;10.766;2023-02-11T15:21:59;5.60;1.00
3701;DHT22;1866;48.374;10.766;2023-02-11T15:24:28;5.60;1.00
3701;DHT22;1866;48.374;10.766;2023-02-11T15:26:57;5.60;1.00
3701;DHT22;1866;48.374;10.766;2023-02-11T15:29:24;5.50;1.00
3701;DHT22;1866;48.374;10.766;2023-02-11T15:32:11;5.50;1.00
3701;DHT22;1866;48.374;10.766;2023-02-11T15:34:40;5.50;1.00
3701;DHT22;1866;48.374;10.766;2023-02-11T15:37:09;5.50;1.00
3701;DHT22;1866;48.374;10.766;2023-02-11T15:39:39;5.60;1.00
3701;DHT22;1866;48.374;10.766;2023-02-11T15:42:19;5.70;1.00
3701;DHT22;1866;48.374;10.766;2023-02-11T15:44:47;5.70;1.00
3701;DHT22;1866;48.374;10.766;2023-02-11T15:47:18;5.80;1.00
3701;DHT22;1866;48.374;10.766;2023-02-11T15:49:47;6.10;1.00
3701;DHT22;1866;48.374;10.766;2023-02-11T15:52:23;6.20;1.00
3701;DHT22;1866;48.374;10.766;2023-02-11T15:54:51;6.20;1.00
3701;DHT22;1866;48.374;10.766;2023-02-11T15:57:21;6.00;1.00
3701;DHT22;1866;48.374;10.766;2023-02-11T15:59:50;6.00;1.00
3701;DHT22;1866;48.374;10.766;2023-02-11T16:02:19;5.90;1.00
3701;DHT22;1866;48.374;10.766;2023-02-11T16:04:53;5.90;1.00
3701;DHT22;1866;48.374;10.766;2023-02-11T16:07:43;5.90;1.00
3701;DHT22;1866;48.374;10.766;2023-02-11T16:10:19;5.80;1.00
3701;DHT22;1866;48.374;10.766;2023-02-11T16:13:16;5.70;1.00
3701;DHT22;1866;48.374;10.766;2023-02-11T16:15:47;6.00;1.00
3701;DHT22;1866;48.374;10.766;2023-02-11T16:18:31;5.90;1.00
3701;DHT22;1866;48.374;10.766;2023-02-11T16:21:00;5.50;1.00
3701;DHT22;1866;48.374;10.766;2023-02-11T16:23:32;5.40;1.00
3701;DHT22;1866;48.374;10.766;2023-02-11T16:26:02;5.10;1.00
3701;DHT22;1866;48.374;10.766;2023-02-11T16:28:33;4.80;1.00
3701;DHT22;1866;48.374;10.766;2023-02-11T16:31:00;4.50;1.00
3701;DHT22;1866;48.374;10.766;2023-02-11T16:33:28;4.50;1.00
3701;DHT22;1866;48.374;10.766;2023-02-11T16:35:55;4.70;1.00
3701;DHT22;1866;48.374;10.766;2023-02-11T16:38:23;4.80;1.00
3701;DHT22;1866;48.374;10.766;2023-02-11T16:40:50;4.80;1.00
3701;DHT22;1866;48.374;10.766;2023-02-11T16:43:18;4.60;1.00
3701;DHT22;1866;48.374;10.766;2023-02-11T16:45:45;4.80;1.00
3701;DHT22;1866;48.374;10.766;2023-02-11T16:48:15;4.60;1.00
3701;DHT22;1866;48.374;10.766;2023-02-11T16:50:46;4.40;1.00
3701;DHT22;1866;48.374;10.766;2023-02-11T16:53:17;4.20;1.00